Weerstation
Sluispark-LeuvenLeuven-Sluispark



Het weer levert geen direct gevaar op.    Er zijn geen waarschuwingen afgegeven.

Nabijgelegen vliegvelden - METAR rapporten

   
EBBR - Wilsele bij Leuven
Gewijzigd: 09-04-2020 01:20
Helder    Wind: NW 5.6 km/h
Helder
Wind: Wind: NW 5.6 km/h
Temperatuur: 13°C
Dauwpunt: 5°C
Vochtigheid: 59%
Barometer: 1023 hPa
Zicht: meer dan 10 km
Bewolking: Helder
EBBR 082320Z 31003KT CAVOK 13/05 Q1023 NOSIG
EBAW - Antwerp
Gewijzigd: 09-04-2020 01:20
Helder    Wind: varieert 3.7 km/h
Helder
Wind: Wind: varieert 3.7 km/h
Temperatuur: 14°C
Dauwpunt: 9°C
Vochtigheid: 72%
Barometer: 1023 hPa
Bewolking: Helder
Zicht: 8 km
Bewolking: Helder
EBAW 082320Z AUTO VRB02KT 8000 // NCD 14/09 Q1023
EBLG - Li├Ęge
Gewijzigd: 09-04-2020 01:20
Helder    Wind: varieert 3.7 km/h
Helder
Wind: Wind: varieert 3.7 km/h
Temperatuur: 17°C
Dauwpunt: 4°C
Vochtigheid: 42%
Barometer: 1023 hPa
Zicht: meer dan 10 km
Bewolking: Helder
EBLG 082320Z VRB02KT CAVOK 17/04 Q1023 NOSIG
EBCV - Mons/Bergen
Gewijzigd: 09-04-2020 01:39
Gedeeltelijk bewolkt    Wind: varieert 1.9 km/h
Gedeeltelijk bewolkt
Wind: Wind: varieert 1.9 km/h
Temperatuur: 12°C
Dauwpunt: 8°C
Vochtigheid: 77%
Barometer: 1023 hPa
Bewolking: Gedeeltelijk bewolkt
Zicht: 7 km
Bewolking: Gedeeltelijk bewolkt 2926.1 m
EBCV 082339Z AUTO VRB01KT 7000 SCT096/// 12/08 Q1023 WHT
EHBK - Maastricht
Gewijzigd: 09-04-2020 01:25
Gedeeltelijk bewolkt    Wind: ZW 1.9 km/h
Gedeeltelijk bewolkt
Wind: Wind: ZW 1.9 km/h
Temperatuur: 13°C
Dauwpunt: 5°C
Vochtigheid: 59%
Barometer: 1022 hPa
Bewolking: Gedeeltelijk bewolkt
Zicht: meer dan 10 km
Bewolking: Gedeeltelijk bewolkt
EHBK 082325Z AUTO 22001KT 9999 NSC 13/05 Q1022
ELLX - Luxemburg
Gewijzigd: 09-04-2020 01:20
Helder    Wind: NNW 9.3 km/h
Helder
Wind: Wind: NNW 9.3 km/h
Temperatuur: 15°C
Dauwpunt: 1°C
Vochtigheid: 39%
Barometer: 1023 hPa
Zicht: meer dan 10 km
Bewolking: Helder
ELLX 082320Z 33005KT 280V340 CAVOK 15/01 Q1023 NOSIG
EBOS - Oostende
Gewijzigd: 09-04-2020 01:20
Gedeeltelijk bewolkt    Wind: NO 5.6 km/h
Gedeeltelijk bewolkt
Wind: Wind: NO 5.6 km/h
Temperatuur: 9°C
Voelt als: 8°C
Dauwpunt: 7°C
Vochtigheid: 87%
Barometer: 1024 hPa
Bewolking: Gedeeltelijk bewolkt
Zicht: 6 km
Bewolking: Gedeeltelijk bewolkt
EBOS 082320Z 05003KT 6000 NSC 09/07 Q1024 BECMG 4000 BR
  

Script ontwikkeld door  Saratoga-weather.org Aangepast voor de template door  Weerstation Leuven

U vindt ons ook hier:

UK Metoffice

WeatherCloud

European Weather Network

Weather Underground

Benelux Weather Network

AWEKAS

WeatherlinkIP

HAMweather, WeatherForYou, PWS Weather

Het Weer Aktueel

Apparatuur in gebruik:

Weer-station
Davis VP2 weatherstation

Weer-programma
Meteobridge

Weer-computer
D-Link DIR-505

Webleverancier
Robohost

Davis VP2 weatherstation

Meteobridge

D-Link DIR-505

Robohost